createdAt,value
2023-12-23T00:01:16.321Z,11.82
2023-12-23T00:03:43.206Z,20.42
2023-12-23T00:06:11.566Z,24.75
2023-12-23T00:08:38.584Z,23.73
2023-12-23T00:11:05.693Z,19.10
2023-12-23T00:13:32.716Z,17.10
2023-12-23T00:16:00.599Z,13.38
2023-12-23T00:18:27.681Z,18.17
2023-12-23T00:20:54.682Z,12.88
2023-12-23T00:23:21.616Z,15.75
2023-12-23T00:25:48.460Z,23.98
2023-12-23T00:28:15.335Z,14.90
2023-12-23T00:30:42.203Z,17.85
2023-12-23T00:33:09.716Z,20.30
2023-12-23T00:35:36.669Z,14.93
2023-12-23T00:38:03.641Z,16.50
2023-12-23T00:40:30.535Z,20.98
2023-12-23T00:42:57.735Z,16.13
2023-12-23T00:45:24.557Z,12.55
2023-12-23T00:47:51.695Z,14.20
2023-12-23T00:50:18.847Z,12.35
2023-12-23T00:52:45.746Z,18.67
2023-12-23T00:55:12.758Z,13.88
2023-12-23T00:57:39.668Z,16.90
2023-12-23T01:00:07.391Z,14.00
2023-12-23T01:02:34.266Z,18.17
2023-12-23T01:05:01.118Z,15.65
2023-12-23T01:07:27.988Z,15.80
2023-12-23T01:09:54.890Z,17.38
2023-12-23T01:12:21.724Z,14.52
2023-12-23T01:14:48.634Z,16.02
2023-12-23T01:17:15.672Z,15.07
2023-12-23T01:19:43.403Z,15.65
2023-12-23T01:22:10.257Z,13.32
2023-12-23T01:24:37.099Z,17.60
2023-12-23T01:27:04.126Z,12.57
2023-12-23T01:29:30.948Z,13.90
2023-12-23T01:31:57.915Z,12.88
2023-12-23T01:34:24.721Z,15.13
2023-12-23T01:36:51.585Z,13.60
2023-12-23T01:39:19.666Z,11.32
2023-12-23T01:41:46.536Z,11.88
2023-12-23T01:44:13.674Z,14.07
2023-12-23T01:46:40.872Z,12.73
2023-12-23T01:49:08.524Z,10.90
2023-12-23T01:51:36.045Z,13.88
2023-12-23T01:54:05.755Z,11.50
2023-12-23T01:56:37.318Z,11.52
2023-12-23T01:59:05.008Z,15.23
2023-12-23T02:01:36.139Z,11.00
2023-12-23T02:04:03.517Z,11.43
2023-12-23T02:06:30.339Z,14.02
2023-12-23T02:08:57.276Z,11.73
2023-12-23T02:12:06.515Z,12.60
2023-12-23T02:14:38.066Z,10.30
2023-12-23T02:17:05.071Z,11.45
2023-12-23T02:19:31.986Z,9.35
2023-12-23T02:21:58.852Z,11.57
2023-12-23T02:24:25.814Z,12.50
2023-12-23T02:26:59.157Z,5.88
2023-12-23T02:29:27.237Z,9.68
2023-12-23T02:31:56.569Z,6.15
2023-12-23T02:34:24.327Z,6.30
2023-12-23T02:36:51.173Z,6.07
2023-12-23T02:39:18.005Z,5.85
2023-12-23T02:41:44.819Z,8.73
2023-12-23T02:44:11.754Z,12.75
2023-12-23T02:46:38.859Z,9.27
2023-12-23T02:49:05.884Z,10.43
2023-12-23T02:51:32.918Z,13.88
2023-12-23T02:53:59.765Z,12.45
2023-12-23T02:56:26.600Z,10.00
2023-12-23T02:58:55.615Z,8.65
2023-12-23T03:01:22.688Z,10.50
2023-12-23T03:03:49.569Z,10.77
2023-12-23T03:06:17.030Z,13.52
2023-12-23T03:08:43.976Z,13.68
2023-12-23T03:11:10.884Z,11.40
2023-12-23T03:13:37.781Z,7.32
2023-12-23T03:16:15.823Z,5.97
2023-12-23T03:18:42.867Z,8.30
2023-12-23T03:21:09.869Z,12.70
2023-12-23T03:23:37.473Z,7.90
2023-12-23T03:26:04.614Z,8.40
2023-12-23T03:28:31.578Z,8.00
2023-12-23T03:30:58.410Z,11.05
2023-12-23T03:33:25.522Z,7.88
2023-12-23T03:35:52.415Z,12.55
2023-12-23T03:38:19.274Z,7.25
2023-12-23T03:40:46.193Z,10.38
2023-12-23T03:43:13.638Z,7.18
2023-12-23T03:45:40.592Z,8.50
2023-12-23T03:48:08.121Z,9.43
2023-12-23T03:50:35.118Z,8.27
2023-12-23T03:53:02.073Z,7.70
2023-12-23T03:55:33.508Z,7.07
2023-12-23T03:58:00.975Z,7.38
2023-12-23T04:00:28.296Z,7.88
2023-12-23T04:02:55.424Z,7.45
2023-12-23T04:05:23.074Z,10.30
2023-12-23T04:07:52.317Z,6.50
2023-12-23T04:10:19.290Z,10.60
2023-12-23T04:12:46.207Z,8.65
2023-12-23T04:15:13.151Z,7.63
2023-12-23T04:17:43.965Z,9.80
2023-12-23T04:20:11.506Z,8.70
2023-12-23T04:22:38.509Z,8.18
2023-12-23T04:25:05.856Z,8.00
2023-12-23T04:27:34.012Z,9.77
2023-12-23T04:30:01.004Z,8.02
2023-12-23T04:32:28.180Z,6.55
2023-12-23T04:34:56.636Z,7.50
2023-12-23T04:37:23.688Z,8.35
2023-12-23T04:39:50.537Z,9.43
2023-12-23T04:42:17.381Z,10.98
2023-12-23T04:44:44.233Z,10.30
2023-12-23T04:47:11.215Z,12.23
2023-12-23T04:49:39.487Z,8.63
2023-12-23T04:52:06.522Z,8.75
2023-12-23T04:54:33.738Z,8.73
2023-12-23T04:57:00.601Z,15.65
2023-12-23T04:59:28.882Z,10.05
2023-12-23T05:01:56.098Z,10.73
2023-12-23T05:04:23.063Z,10.68
2023-12-23T05:06:49.945Z,10.55
2023-12-23T05:09:16.789Z,10.93
2023-12-23T05:11:43.781Z,11.32
2023-12-23T05:14:11.442Z,12.38
2023-12-23T05:16:38.514Z,10.73
2023-12-23T05:19:05.422Z,15.07
2023-12-23T05:21:32.344Z,11.13
2023-12-23T05:23:59.202Z,12.27
2023-12-23T05:26:26.180Z,14.68
2023-12-23T05:28:53.310Z,11.30
2023-12-23T05:31:20.245Z,10.63
2023-12-23T05:33:48.336Z,9.57
2023-12-23T05:36:15.407Z,10.90
2023-12-23T05:38:42.362Z,10.60
2023-12-23T05:41:10.634Z,8.18
2023-12-23T05:43:37.562Z,14.27
2023-12-23T05:46:04.629Z,12.32
2023-12-23T05:48:31.710Z,17.70
2023-12-23T05:50:58.682Z,11.85
2023-12-23T05:53:25.673Z,13.30
2023-12-23T05:55:52.753Z,12.77
2023-12-23T05:58:19.738Z,10.40
2023-12-23T06:00:46.643Z,14.38
2023-12-23T06:03:13.644Z,11.00
2023-12-23T06:05:40.531Z,11.75
2023-12-23T06:08:07.854Z,12.85
2023-12-23T06:10:47.116Z,17.83
2023-12-23T06:13:21.037Z,13.63
2023-12-23T06:15:48.083Z,13.00
2023-12-23T06:18:15.054Z,15.70
2023-12-23T06:20:41.890Z,17.42
2023-12-23T06:23:08.800Z,22.75
2023-12-23T06:25:35.627Z,19.88
2023-12-23T06:28:02.999Z,18.15
2023-12-23T06:30:29.871Z,17.20
2023-12-23T06:32:56.841Z,17.00
2023-12-23T06:35:23.934Z,17.77
2023-12-23T06:37:50.865Z,17.15
2023-12-23T06:40:17.811Z,21.38
2023-12-23T06:42:44.698Z,22.40
2023-12-23T06:45:13.172Z,22.15
2023-12-23T06:47:40.536Z,19.98
2023-12-23T06:50:08.143Z,14.70
2023-12-23T06:52:35.331Z,22.08
2023-12-23T06:55:02.306Z,17.15
2023-12-23T06:57:29.102Z,13.88
2023-12-23T06:59:57.942Z,14.55
2023-12-23T07:02:24.794Z,15.40
2023-12-23T07:04:51.716Z,21.52
2023-12-23T07:07:19.190Z,19.92
2023-12-23T07:09:48.731Z,13.93
2023-12-23T07:12:17.593Z,19.00
2023-12-23T07:14:44.843Z,10.95
2023-12-23T07:17:11.950Z,9.98
2023-12-23T07:19:38.959Z,12.98
2023-12-23T07:22:05.807Z,15.35
2023-12-23T07:24:32.617Z,17.08
2023-12-23T07:26:59.807Z,11.65
2023-12-23T07:29:26.713Z,11.60
2023-12-23T07:31:53.645Z,16.58
2023-12-23T07:34:20.538Z,13.52
2023-12-23T07:36:47.489Z,13.45
2023-12-23T07:39:15.447Z,19.75
2023-12-23T07:41:42.277Z,17.95
2023-12-23T07:44:09.608Z,18.35
2023-12-23T07:46:36.545Z,21.70
2023-12-23T07:49:04.290Z,20.90
2023-12-23T07:51:31.241Z,17.88
2023-12-23T07:53:58.220Z,19.60
2023-12-23T07:56:26.789Z,18.30
2023-12-23T07:58:53.731Z,16.92
2023-12-23T08:01:20.785Z,13.15
2023-12-23T08:03:47.709Z,11.77
2023-12-23T08:06:17.029Z,12.73
2023-12-23T08:08:44.387Z,17.77
2023-12-23T08:11:11.279Z,11.82
2023-12-23T08:13:38.246Z,15.02
2023-12-23T08:16:05.394Z,15.32
2023-12-23T08:18:32.383Z,10.25
2023-12-23T08:20:59.387Z,13.23
2023-12-23T08:23:26.401Z,21.67
2023-12-23T08:25:53.292Z,16.40
2023-12-23T08:28:20.154Z,15.35
2023-12-23T08:30:46.984Z,12.98
2023-12-23T08:33:14.108Z,13.23
2023-12-23T08:35:42.896Z,10.32
2023-12-23T08:38:09.957Z,15.95
2023-12-23T08:40:36.882Z,11.27
2023-12-23T08:43:03.881Z,13.38
2023-12-23T08:45:30.870Z,12.63
2023-12-23T08:47:58.139Z,14.45
2023-12-23T08:50:25.682Z,12.52
2023-12-23T08:52:53.301Z,9.48
2023-12-23T08:55:20.262Z,12.90
2023-12-23T08:57:47.081Z,17.70
2023-12-23T09:00:14.619Z,14.00
2023-12-23T09:02:42.833Z,13.50
2023-12-23T09:05:10.093Z,13.35
2023-12-23T09:07:37.462Z,15.82
2023-12-23T09:10:05.843Z,8.70
2023-12-23T09:12:34.525Z,11.00
2023-12-23T09:15:01.391Z,11.20
2023-12-23T09:17:30.801Z,11.50
2023-12-23T09:19:58.514Z,8.60
2023-12-23T09:22:25.533Z,8.30
2023-12-23T09:24:52.669Z,13.02
2023-12-23T09:27:20.614Z,13.23
2023-12-23T09:29:47.853Z,12.65
2023-12-23T09:32:14.780Z,10.15
2023-12-23T09:34:41.718Z,16.27
2023-12-23T09:37:08.627Z,13.70
2023-12-23T09:39:35.469Z,11.50
2023-12-23T09:42:03.625Z,12.85
2023-12-23T09:44:30.590Z,11.13
2023-12-23T09:46:57.523Z,9.52
2023-12-23T09:49:25.840Z,10.10
2023-12-23T09:51:55.734Z,10.65
2023-12-23T09:54:27.193Z,13.82
2023-12-23T09:56:54.425Z,11.27
2023-12-23T09:59:21.646Z,9.82
2023-12-23T10:01:48.630Z,12.82
2023-12-23T10:04:15.607Z,7.45
2023-12-23T10:06:42.706Z,10.48
2023-12-23T10:09:12.428Z,12.20
2023-12-23T10:11:39.280Z,7.88
2023-12-23T10:14:06.185Z,12.52
2023-12-23T10:16:33.032Z,7.00
2023-12-23T10:19:00.024Z,10.75
2023-12-23T10:21:26.912Z,6.75
2023-12-23T10:23:54.749Z,9.15
2023-12-23T10:26:21.753Z,10.68
2023-12-23T10:28:58.783Z,11.60
2023-12-23T10:31:29.791Z,9.93
2023-12-23T10:34:00.870Z,14.00
2023-12-23T10:36:27.728Z,10.45
2023-12-23T10:39:04.232Z,9.35
2023-12-23T10:41:40.051Z,9.82
2023-12-23T10:44:09.164Z,10.20
2023-12-23T10:46:36.396Z,12.63
2023-12-23T10:49:06.504Z,11.05
2023-12-23T10:51:34.030Z,8.38
2023-12-23T10:54:03.405Z,6.82
2023-12-23T10:56:31.522Z,8.18
2023-12-23T10:58:58.538Z,15.45
2023-12-23T11:01:30.296Z,7.93
2023-12-23T11:04:01.686Z,9.55
2023-12-23T11:06:31.571Z,8.65
2023-12-23T11:09:01.315Z,8.55
2023-12-23T11:11:29.725Z,9.50
2023-12-23T11:13:57.152Z,11.88
2023-12-23T11:16:24.288Z,9.05
2023-12-23T11:18:54.446Z,7.70
2023-12-23T11:21:21.978Z,10.43
2023-12-23T11:23:49.215Z,6.05
2023-12-23T11:26:41.513Z,7.63
2023-12-23T11:29:19.986Z,9.85
2023-12-23T11:31:47.003Z,10.40
2023-12-23T11:34:16.039Z,11.52
2023-12-23T11:36:44.990Z,8.27
2023-12-23T11:39:12.642Z,8.90
2023-12-23T11:41:43.197Z,8.50
2023-12-23T11:44:12.534Z,12.00
2023-12-23T11:46:42.712Z,11.93
2023-12-23T11:49:13.477Z,9.20
2023-12-23T11:51:41.140Z,10.10
2023-12-23T11:54:09.551Z,12.57
2023-12-23T11:56:36.873Z,14.05
2023-12-23T11:59:03.967Z,13.88
2023-12-23T12:01:36.724Z,11.50
2023-12-23T12:04:05.500Z,10.05
2023-12-23T12:06:32.719Z,12.25
2023-12-23T12:09:01.424Z,8.93
2023-12-23T12:11:29.720Z,9.77
2023-12-23T12:14:00.196Z,11.32
2023-12-23T12:16:31.546Z,9.93
2023-12-23T12:18:58.552Z,15.15
2023-12-23T12:21:25.609Z,10.90
2023-12-23T12:23:59.049Z,10.55
2023-12-23T12:26:26.680Z,13.15
2023-12-23T12:28:54.059Z,11.88
2023-12-23T12:31:20.890Z,12.50
2023-12-23T12:33:48.563Z,13.32
2023-12-23T12:36:17.691Z,12.00
2023-12-23T12:38:45.752Z,8.98
2023-12-23T12:41:13.804Z,9.13
2023-12-23T12:43:44.668Z,11.88
2023-12-23T12:46:16.740Z,17.50
2023-12-23T12:48:46.007Z,14.90
2023-12-23T12:51:15.211Z,12.68
2023-12-23T12:53:42.222Z,9.93
2023-12-23T12:56:11.415Z,13.20
2023-12-23T12:58:39.101Z,12.20
2023-12-23T13:01:06.231Z,11.05
2023-12-23T13:03:33.429Z,13.90
2023-12-23T13:06:00.484Z,12.20
2023-12-23T13:08:27.479Z,11.23
2023-12-23T13:10:54.465Z,10.95
2023-12-23T13:13:21.627Z,14.30
2023-12-23T13:15:48.551Z,15.25
2023-12-23T13:18:15.471Z,13.25
2023-12-23T13:20:42.494Z,16.02
2023-12-23T13:23:09.614Z,11.57
2023-12-23T13:25:36.525Z,9.88
2023-12-23T13:28:03.629Z,12.77
2023-12-23T13:30:30.482Z,10.65
2023-12-23T13:32:57.405Z,15.77
2023-12-23T13:35:24.688Z,15.13
2023-12-23T13:37:51.592Z,13.27
2023-12-23T13:40:18.540Z,12.10
2023-12-23T13:42:45.817Z,10.65
2023-12-23T13:45:13.533Z,11.75
2023-12-23T13:47:41.210Z,12.95
2023-12-23T13:50:09.370Z,12.65
2023-12-23T13:52:36.406Z,21.65
2023-12-23T13:55:04.967Z,19.20
2023-12-23T13:57:32.039Z,24.00
2023-12-23T13:59:59.036Z,27.15
2023-12-23T14:02:26.129Z,16.30
2023-12-23T14:04:53.689Z,16.90
2023-12-23T14:07:20.588Z,13.68
2023-12-23T14:09:47.471Z,14.15
2023-12-23T14:12:14.473Z,16.15
2023-12-23T14:14:41.318Z,12.20
2023-12-23T14:17:08.155Z,11.93
2023-12-23T14:19:35.414Z,13.82
2023-12-23T14:22:02.398Z,14.63
2023-12-23T14:24:29.293Z,15.48
2023-12-23T14:26:56.292Z,16.42
2023-12-23T14:29:23.192Z,12.88
2023-12-23T14:31:50.213Z,17.35
2023-12-23T14:34:17.126Z,16.70
2023-12-23T14:36:49.602Z,14.40
2023-12-23T14:39:21.932Z,17.27
2023-12-23T14:41:50.462Z,15.23
2023-12-23T14:44:17.399Z,12.52
2023-12-23T14:46:44.262Z,14.38
2023-12-23T14:49:11.371Z,16.80
2023-12-23T14:51:38.475Z,14.02
2023-12-23T14:54:05.764Z,12.52
2023-12-23T14:56:32.964Z,14.77
2023-12-23T14:58:59.840Z,16.98
2023-12-23T15:01:26.861Z,19.23
2023-12-23T15:03:53.784Z,16.42
2023-12-23T15:06:20.817Z,20.08
2023-12-23T15:08:47.893Z,16.40
2023-12-23T15:11:15.479Z,16.48
2023-12-23T15:13:43.765Z,24.05
2023-12-23T15:16:11.349Z,22.27
2023-12-23T15:18:38.492Z,19.17
2023-12-23T15:21:06.913Z,25.20
2023-12-23T15:23:35.179Z,18.92
2023-12-23T15:26:02.279Z,18.63
2023-12-23T15:28:29.246Z,27.00
2023-12-23T15:30:56.964Z,19.48
2023-12-23T15:33:24.278Z,17.60
2023-12-23T15:35:51.382Z,20.65
2023-12-23T15:38:18.362Z,18.80
2023-12-23T15:40:45.340Z,15.57
2023-12-23T15:43:15.591Z,16.15
2023-12-23T15:45:43.054Z,21.60
2023-12-23T15:48:10.204Z,13.10
2023-12-23T15:50:37.253Z,13.15
2023-12-23T15:53:04.763Z,13.40
2023-12-23T15:55:34.572Z,11.15
2023-12-23T15:58:03.045Z,13.45
2023-12-23T16:00:30.298Z,12.30
2023-12-23T16:02:59.565Z,12.48
2023-12-23T16:05:27.030Z,14.48
2023-12-23T16:07:54.005Z,13.30
2023-12-23T16:10:20.938Z,12.25
2023-12-23T16:12:47.899Z,15.75
2023-12-23T16:15:15.570Z,13.57
2023-12-23T16:17:42.630Z,13.40
2023-12-23T16:20:09.867Z,11.27
2023-12-23T16:22:36.764Z,15.32
2023-12-23T16:25:04.519Z,13.95
2023-12-23T16:27:31.330Z,14.60
2023-12-23T16:29:58.194Z,11.52
2023-12-23T16:32:25.363Z,16.55
2023-12-23T16:34:54.147Z,14.38
2023-12-23T16:37:24.557Z,9.65
2023-12-23T16:39:53.404Z,16.40
2023-12-23T16:42:20.537Z,9.38
2023-12-23T16:44:47.455Z,12.85
2023-12-23T16:47:14.402Z,14.75
2023-12-23T16:49:43.432Z,11.77
2023-12-23T16:52:10.661Z,12.98
2023-12-23T16:54:37.506Z,9.52
2023-12-23T16:57:04.640Z,10.23
2023-12-23T16:59:31.726Z,12.85
2023-12-23T17:01:58.744Z,10.60
2023-12-23T17:04:26.017Z,9.75
2023-12-23T17:06:52.879Z,13.00
2023-12-23T17:09:19.827Z,11.60
2023-12-23T17:11:49.257Z,8.82
2023-12-23T17:14:17.112Z,10.60
2023-12-23T17:16:45.265Z,7.90
2023-12-23T17:19:12.342Z,14.73
2023-12-23T17:21:39.245Z,10.68
2023-12-23T17:24:06.503Z,9.15
2023-12-23T17:26:33.434Z,11.18
2023-12-23T17:29:00.409Z,11.40
2023-12-23T17:31:27.255Z,10.48
2023-12-23T17:33:54.290Z,14.10
2023-12-23T17:36:21.368Z,11.18
2023-12-23T17:38:51.846Z,11.95
2023-12-23T17:41:19.497Z,9.68
2023-12-23T17:43:46.475Z,14.77
2023-12-23T17:46:13.445Z,12.40
2023-12-23T17:48:40.456Z,12.00
2023-12-23T17:51:07.404Z,11.00
2023-12-23T17:53:34.302Z,7.00
2023-12-23T17:56:07.713Z,14.80
2023-12-23T17:58:34.523Z,12.15
2023-12-23T18:01:01.512Z,9.48
2023-12-23T18:03:28.526Z,10.93
2023-12-23T18:05:55.421Z,6.75
2023-12-23T18:08:22.564Z,10.55
2023-12-23T18:10:49.483Z,12.75
2023-12-23T18:13:21.479Z,15.05
2023-12-23T18:15:49.015Z,9.13
2023-12-23T18:18:17.699Z,8.85
2023-12-23T18:20:44.853Z,11.65
2023-12-23T18:23:12.122Z,8.45
2023-12-23T18:25:39.305Z,14.38
2023-12-23T18:28:06.411Z,10.60
2023-12-23T18:30:33.319Z,7.35
2023-12-23T18:33:00.499Z,8.40
2023-12-23T18:35:27.805Z,11.98
2023-12-23T18:37:54.881Z,7.22
2023-12-23T18:40:22.021Z,7.28
2023-12-23T18:42:49.032Z,6.80
2023-12-23T18:45:16.065Z,8.90
2023-12-23T18:47:43.183Z,9.98
2023-12-23T18:50:10.392Z,10.65
2023-12-23T18:52:37.259Z,12.85
2023-12-23T18:55:04.485Z,7.05
2023-12-23T18:57:31.290Z,10.05
2023-12-23T18:59:58.229Z,8.25
2023-12-23T19:02:25.180Z,10.15
2023-12-23T19:04:52.158Z,8.07
2023-12-23T19:07:19.053Z,8.40
2023-12-23T19:09:47.107Z,9.35
2023-12-23T19:12:14.054Z,10.68
2023-12-23T19:14:40.916Z,9.55
2023-12-23T19:17:07.851Z,7.70
2023-12-23T19:19:34.861Z,6.13
2023-12-23T19:22:01.729Z,10.38
2023-12-23T19:24:28.592Z,11.57
2023-12-23T19:26:55.695Z,8.25
2023-12-23T19:29:22.557Z,7.43
2023-12-23T19:31:49.511Z,7.18
2023-12-23T19:34:16.736Z,11.13
2023-12-23T19:36:43.702Z,7.07
2023-12-23T19:39:11.032Z,11.65
2023-12-23T19:41:37.995Z,7.68
2023-12-23T19:44:05.459Z,10.57
2023-12-23T19:46:36.344Z,12.85
2023-12-23T19:49:04.070Z,11.60
2023-12-23T19:51:31.569Z,8.43
2023-12-23T19:53:59.865Z,9.70
2023-12-23T19:56:27.224Z,12.98
2023-12-23T19:58:54.324Z,9.68
2023-12-23T20:01:21.216Z,9.77
2023-12-23T20:03:48.331Z,10.18
2023-12-23T20:06:15.382Z,11.82
2023-12-23T20:08:42.391Z,12.63
2023-12-23T20:11:09.612Z,8.60
2023-12-23T20:13:36.669Z,16.35
2023-12-23T20:16:05.807Z,8.63
2023-12-23T20:18:33.310Z,8.15
2023-12-23T20:21:00.356Z,9.48
2023-12-23T20:23:27.288Z,9.60
2023-12-23T20:25:54.268Z,7.30
2023-12-23T20:28:21.119Z,7.03
2023-12-23T20:30:48.192Z,7.93
2023-12-23T20:33:15.299Z,7.75
2023-12-23T20:35:42.392Z,13.23
2023-12-23T20:38:09.340Z,9.90
2023-12-23T20:40:36.330Z,10.30
2023-12-23T20:43:03.189Z,9.20
2023-12-23T20:45:30.097Z,6.53
2023-12-23T20:47:57.061Z,8.77
2023-12-23T20:50:24.059Z,11.02
2023-12-23T20:52:51.163Z,11.48
2023-12-23T20:55:21.036Z,15.85
2023-12-23T20:57:47.882Z,11.07
2023-12-23T21:00:18.642Z,8.93
2023-12-23T21:02:46.303Z,9.05
2023-12-23T21:05:13.667Z,8.43
2023-12-23T21:07:40.918Z,6.53
2023-12-23T21:10:08.594Z,10.13
2023-12-23T21:12:36.190Z,11.82
2023-12-23T21:15:03.212Z,11.60
2023-12-23T21:17:30.361Z,9.13
2023-12-23T21:19:57.370Z,9.55
2023-12-23T21:22:24.346Z,8.57
2023-12-23T21:24:52.286Z,9.65
2023-12-23T21:27:19.474Z,19.85
2023-12-23T21:29:46.399Z,6.40
2023-12-23T21:32:16.479Z,12.32
2023-12-23T21:34:43.859Z,9.38
2023-12-23T21:37:12.976Z,9.73
2023-12-23T21:39:40.360Z,9.73
2023-12-23T21:42:09.331Z,9.00
2023-12-23T21:44:36.208Z,8.82
2023-12-23T21:47:03.214Z,9.80
2023-12-23T21:49:30.156Z,8.07
2023-12-23T21:51:57.013Z,7.70
2023-12-23T21:54:23.957Z,6.45
2023-12-23T21:56:50.805Z,8.25
2023-12-23T21:59:17.828Z,8.35
2023-12-23T22:01:44.715Z,10.10
2023-12-23T22:04:11.515Z,9.75
2023-12-23T22:06:39.217Z,6.35
2023-12-23T22:09:06.102Z,7.72
2023-12-23T22:11:33.052Z,4.60
2023-12-23T22:14:00.132Z,9.02
2023-12-23T22:16:27.015Z,6.78
2023-12-23T22:18:53.905Z,5.35
2023-12-23T22:21:20.935Z,5.63
2023-12-23T22:23:47.779Z,5.43
2023-12-23T22:26:14.776Z,11.93
2023-12-23T22:28:43.605Z,5.10
2023-12-23T22:31:10.620Z,6.03
2023-12-23T22:33:37.650Z,5.05
2023-12-23T22:36:04.731Z,6.43
2023-12-23T22:38:31.702Z,7.15
2023-12-23T22:40:58.687Z,5.97
2023-12-23T22:43:25.647Z,7.88
2023-12-23T22:45:52.622Z,7.70
2023-12-23T22:48:19.645Z,7.18
2023-12-23T22:50:46.577Z,9.70
2023-12-23T22:53:13.584Z,5.18
2023-12-23T22:55:40.612Z,5.13
2023-12-23T22:58:09.944Z,7.10
2023-12-23T23:00:37.646Z,8.63
2023-12-23T23:03:04.682Z,6.63
2023-12-23T23:05:31.818Z,6.50
2023-12-23T23:08:01.553Z,7.68
2023-12-23T23:10:28.482Z,9.15
2023-12-23T23:12:55.376Z,9.15
2023-12-23T23:15:22.222Z,8.02
2023-12-23T23:17:49.285Z,6.65
2023-12-23T23:20:18.752Z,7.47
2023-12-23T23:22:45.711Z,8.25
2023-12-23T23:25:12.596Z,6.43
2023-12-23T23:27:39.476Z,7.80
2023-12-23T23:30:09.265Z,8.07
2023-12-23T23:32:36.315Z,7.28
2023-12-23T23:35:10.829Z,5.57
2023-12-23T23:37:41.564Z,6.80
2023-12-23T23:40:08.724Z,7.70
2023-12-23T23:42:35.681Z,8.57
2023-12-23T23:45:02.560Z,9.35
2023-12-23T23:47:29.565Z,8.25
2023-12-23T23:49:56.585Z,7.57
2023-12-23T23:52:23.488Z,8.98
2023-12-23T23:54:50.396Z,8.50
2023-12-23T23:57:17.632Z,6.20
2023-12-23T23:59:44.822Z,5.47
